Ulan-Ude Airport (Mukhino)
UIUU : now visible

Airfield :











YOU CAN JOIN US ON...

 
LOGIN :

Register | Disclaimer

   EN    FR    IT 

 









Legend :    VFR   Marginal VFR   IFR   Intensive IFR   Very Intensive IFR
Visi :
Ceiling :
>= 8 km
>= 3000ft
5 to 8 km
1000 to 3000 ft
1500m to 5 km
500 to 1000 ft
800 to 1500m
200 to 500 ft
< 800m
< 200 ft
Symbols :   Thunderstorms  Fog  Heavy snow  Heavy precipitations  Wind > 20 kt






- Airport Elevation : 1690 ft
- IATA code : UUD


UIUU - Ulan-Ude (Mukhino)

CURRENT METAR :
  • 180030Z 00000MPS 1800 1400NE R26/1400D FU NSC M30/M32 Q1019 R26/820555 NOSIG RMK QFE720/0960

EXPIRED METARs :
  • 180000Z VRB01MPS 1800 1300N R26/P2000U FU NSC M30/M32 Q1018 R26/820555 NOSIG RMK QFE720/0960
  • 172330Z 00000MPS 1400 0400NE R26/0900N FU NSC M29/M32 Q1018 R26/820555 NOSIG RMK QFE720/0960
  • 172300Z 00000MPS 1600 1300NE R26/P2000N FU NSC M28/M31 Q1018 R26/820555 NOSIG RMK QFE720/0960
  • 172230Z 00000MPS 1700 1000NE R26/1800D FU NSC M27/M29 Q1018 R26/820555 NOSIG RMK QFE720/0960
  • 172200Z 00000MPS 1700 R26/P2000U FU NSC M26/M29 Q1018 R26/820555 NOSIG RMK QFE720/0960
  • 172130Z 00000MPS 1500 1200NE R26/2000N FU NSC M27/M30 Q1019 R26/820555 NOSIG RMK QFE720/0960

TAF TAF UIUU
Valid from the 18 at 00:00 until the 19 at 00:00 UTC


172300Z 1800/1824 10003MPS 1500 FU NSC
TEMPO 1800/1804 0700 FU
BECMG 1804/1806 2900 FU
TEMPO 1806/1824 1200 -SN FU



MET'MAP, your aeronautical weather chart ! - Copyright ORBIFLY December 2007 - Disclaimer

ORBIFLY MET'MAP TEAM :

Programming & Development : Alexandra Zaïnal
Concept & original design : Baudouin d'Aumeries
Assistance for programming : Marc-Olivier Méhu
Technical & hardware support : Manuel Goepfert

Contact : metmap@orbifly.com




SOURCES & CREDITS :

   NOAA       Earth
Advisory